createdAt,value
2023-02-19T00:01:25.358Z,10.73
2023-02-19T00:03:52.728Z,12.23
2023-02-19T00:06:20.254Z,12.10
2023-02-19T00:08:46.394Z,11.23
2023-02-19T00:11:14.824Z,11.53
2023-02-19T00:13:42.593Z,11.03
2023-02-19T00:16:09.752Z,12.77
2023-02-19T00:18:36.133Z,12.83
2023-02-19T00:21:02.633Z,14.57
2023-02-19T00:23:28.944Z,10.00
2023-02-19T00:25:55.425Z,9.73
2023-02-19T00:28:22.706Z,11.50
2023-02-19T00:30:48.922Z,11.20
2023-02-19T00:33:15.707Z,10.03
2023-02-19T00:35:41.831Z,12.27
2023-02-19T00:38:07.940Z,10.20
2023-02-19T00:40:34.081Z,13.33
2023-02-19T00:43:00.197Z,9.93
2023-02-19T00:45:27.119Z,8.73
2023-02-19T00:47:53.407Z,10.03
2023-02-19T00:50:19.646Z,9.97
2023-02-19T00:52:45.765Z,9.97
2023-02-19T00:55:11.924Z,11.03
2023-02-19T00:57:38.072Z,12.87
2023-02-19T01:00:05.838Z,10.53
2023-02-19T01:02:32.724Z,10.73
2023-02-19T01:04:58.918Z,13.30
2023-02-19T01:07:25.089Z,10.93
2023-02-19T01:09:51.229Z,11.40
2023-02-19T01:12:17.394Z,12.90
2023-02-19T01:14:43.758Z,12.87
2023-02-19T01:17:09.908Z,14.03
2023-02-19T01:19:37.025Z,12.03
2023-02-19T01:22:03.220Z,12.10
2023-02-19T01:24:29.346Z,14.73
2023-02-19T01:26:55.509Z,15.43
2023-02-19T01:29:21.671Z,15.83
2023-02-19T01:31:47.858Z,12.90
2023-02-19T01:34:13.998Z,13.50
2023-02-19T01:36:40.796Z,13.73
2023-02-19T01:39:06.973Z,12.60
2023-02-19T01:41:36.023Z,12.53
2023-02-19T01:44:04.434Z,14.00
2023-02-19T01:46:31.871Z,14.17
2023-02-19T01:49:01.768Z,13.53
2023-02-19T01:51:29.580Z,16.37
2023-02-19T01:53:59.412Z,12.67
2023-02-19T01:56:26.759Z,13.20
2023-02-19T01:58:53.729Z,14.87
2023-02-19T02:01:20.105Z,16.40
2023-02-19T02:03:48.257Z,13.47
2023-02-19T02:06:18.790Z,16.13
2023-02-19T02:09:03.256Z,17.63
2023-02-19T02:11:30.247Z,17.57
2023-02-19T02:13:57.047Z,19.23
2023-02-19T02:16:25.030Z,18.90
2023-02-19T02:18:58.536Z,20.03
2023-02-19T02:21:51.627Z,19.97
2023-02-19T02:24:29.735Z,21.83
2023-02-19T02:27:09.293Z,20.20
2023-02-19T02:30:01.646Z,24.23
2023-02-19T02:32:30.779Z,18.80
2023-02-19T02:34:59.613Z,23.00
2023-02-19T02:37:28.012Z,22.67
2023-02-19T02:39:56.072Z,18.33
2023-02-19T02:42:28.169Z,24.67
2023-02-19T02:45:13.054Z,23.30
2023-02-19T02:47:43.944Z,24.70
2023-02-19T02:50:15.392Z,24.70
2023-02-19T02:53:01.077Z,25.50
2023-02-19T02:55:29.791Z,28.30
2023-02-19T02:57:55.976Z,24.50
2023-02-19T03:00:23.333Z,22.37
2023-02-19T03:02:49.926Z,25.80
2023-02-19T03:05:37.035Z,23.73
2023-02-19T03:08:09.130Z,24.00
2023-02-19T03:10:40.297Z,23.50
2023-02-19T03:13:29.498Z,22.03
2023-02-19T03:16:31.955Z,24.73
2023-02-19T03:19:17.673Z,26.33
2023-02-19T03:21:45.556Z,22.93
2023-02-19T03:24:30.845Z,25.57
2023-02-19T03:26:59.150Z,24.30
2023-02-19T03:29:27.525Z,23.53
2023-02-19T03:31:55.578Z,27.50
2023-02-19T03:34:26.161Z,25.30
2023-02-19T03:36:56.420Z,32.63
2023-02-19T03:39:23.095Z,27.37
2023-02-19T03:41:55.931Z,30.70
2023-02-19T03:44:26.850Z,28.83
2023-02-19T03:46:55.726Z,29.03
2023-02-19T03:49:26.286Z,27.43
2023-02-19T03:51:59.862Z,33.13
2023-02-19T03:54:33.853Z,28.07
2023-02-19T03:57:03.946Z,26.27
2023-02-19T03:59:34.240Z,26.57
2023-02-19T04:02:02.657Z,30.03
2023-02-19T04:04:32.347Z,36.17
2023-02-19T04:06:58.582Z,25.77
2023-02-19T04:09:28.548Z,28.13
2023-02-19T04:11:54.898Z,25.33
2023-02-19T04:14:24.589Z,29.50
2023-02-19T04:16:54.906Z,29.63
2023-02-19T04:19:24.744Z,36.23
2023-02-19T04:21:52.725Z,35.97
2023-02-19T04:24:22.623Z,32.20
2023-02-19T04:26:48.919Z,35.23
2023-02-19T04:29:15.029Z,29.60
2023-02-19T04:31:41.328Z,32.43
2023-02-19T04:34:07.520Z,39.03
2023-02-19T04:36:33.787Z,28.93
2023-02-19T04:39:00.612Z,34.93
2023-02-19T04:41:26.748Z,32.33
2023-02-19T04:43:53.102Z,33.73
2023-02-19T04:46:19.456Z,34.87
2023-02-19T04:48:45.597Z,38.33
2023-02-19T04:51:12.103Z,38.23
2023-02-19T04:53:38.440Z,35.17
2023-02-19T04:56:06.666Z,38.33
2023-02-19T04:58:33.047Z,33.70
2023-02-19T05:00:59.168Z,37.27
2023-02-19T05:03:25.446Z,31.63
2023-02-19T05:05:51.607Z,26.70
2023-02-19T05:08:17.791Z,29.60
2023-02-19T05:10:44.081Z,33.40
2023-02-19T05:13:10.908Z,34.80
2023-02-19T05:15:37.143Z,35.57
2023-02-19T05:18:03.961Z,32.53
2023-02-19T05:20:30.127Z,25.50
2023-02-19T05:22:56.594Z,28.97
2023-02-19T05:25:22.723Z,28.43
2023-02-19T05:27:48.890Z,28.30
2023-02-19T05:30:15.847Z,33.33
2023-02-19T05:32:41.983Z,28.77
2023-02-19T05:35:08.361Z,28.77
2023-02-19T05:37:34.637Z,26.43
2023-02-19T05:40:00.770Z,27.47
2023-02-19T05:42:26.929Z,26.00
2023-02-19T05:44:53.102Z,36.20
2023-02-19T05:47:19.962Z,27.00
2023-02-19T05:49:46.057Z,28.77
2023-02-19T05:52:12.181Z,29.90
2023-02-19T05:54:38.437Z,29.30
2023-02-19T05:57:04.767Z,33.90
2023-02-19T05:59:31.118Z,30.63
2023-02-19T06:01:57.674Z,29.97
2023-02-19T06:04:24.667Z,28.83
2023-02-19T06:06:50.814Z,29.70
2023-02-19T06:09:17.325Z,36.17
2023-02-19T06:11:43.745Z,31.07
2023-02-19T06:14:11.947Z,34.13
2023-02-19T06:16:38.050Z,25.37
2023-02-19T06:19:04.565Z,29.13
2023-02-19T06:21:31.328Z,30.47
2023-02-19T06:23:57.430Z,31.73
2023-02-19T06:26:24.561Z,33.90
2023-02-19T06:28:51.734Z,33.80
2023-02-19T06:31:19.676Z,30.17
2023-02-19T06:33:46.055Z,37.23
2023-02-19T06:36:13.613Z,28.90
2023-02-19T06:38:40.552Z,26.77
2023-02-19T06:41:07.729Z,28.60
2023-02-19T06:43:34.476Z,25.37
2023-02-19T06:46:01.790Z,23.60
2023-02-19T06:48:29.069Z,28.37
2023-02-19T06:50:55.397Z,28.77
2023-02-19T06:53:21.839Z,27.47
2023-02-19T06:55:56.285Z,24.57
2023-02-19T06:58:22.578Z,26.47
2023-02-19T07:00:48.841Z,27.43
2023-02-19T07:03:15.181Z,33.40
2023-02-19T07:05:41.322Z,27.10
2023-02-19T07:08:07.487Z,28.33
2023-02-19T07:10:33.641Z,16.40
2023-02-19T07:13:00.696Z,35.03
2023-02-19T07:15:26.854Z,30.00
2023-02-19T07:17:52.962Z,22.57
2023-02-19T07:20:19.252Z,34.47
2023-02-19T07:22:45.373Z,25.53
2023-02-19T07:25:11.603Z,27.33
2023-02-19T07:27:37.847Z,24.13
2023-02-19T07:30:05.304Z,23.57
2023-02-19T07:32:31.433Z,25.20
2023-02-19T07:34:57.641Z,26.43
2023-02-19T07:37:23.944Z,20.17
2023-02-19T07:39:50.077Z,25.60
2023-02-19T07:42:16.233Z,19.10
2023-02-19T07:44:42.351Z,17.73
2023-02-19T07:47:09.092Z,24.40
2023-02-19T07:49:35.208Z,22.00
2023-02-19T07:52:01.469Z,22.20
2023-02-19T07:54:27.863Z,15.00
2023-02-19T07:56:53.972Z,21.47
2023-02-19T07:59:20.818Z,26.07
2023-02-19T08:02:05.736Z,20.97
2023-02-19T08:04:32.520Z,19.20
2023-02-19T08:06:58.758Z,23.77
2023-02-19T08:09:24.867Z,19.90
2023-02-19T08:12:09.115Z,15.50
2023-02-19T08:14:35.304Z,17.87
2023-02-19T08:17:02.454Z,16.30
2023-02-19T08:19:28.663Z,15.87
2023-02-19T08:21:55.482Z,15.67
2023-02-19T08:24:21.822Z,14.63
2023-02-19T08:26:48.453Z,15.57
2023-02-19T08:29:14.592Z,19.77
2023-02-19T08:31:40.838Z,19.60
2023-02-19T08:34:07.338Z,17.63
2023-02-19T08:36:33.604Z,17.13
2023-02-19T08:39:00.635Z,16.03
2023-02-19T08:41:27.528Z,20.03
2023-02-19T08:43:53.735Z,14.27
2023-02-19T08:46:20.569Z,23.00
2023-02-19T08:48:46.726Z,22.23
2023-02-19T08:51:13.260Z,20.20
2023-02-19T08:53:40.576Z,28.67
2023-02-19T08:56:08.100Z,21.60
2023-02-19T08:58:35.260Z,25.00
2023-02-19T09:01:01.562Z,21.63
2023-02-19T09:03:27.826Z,23.23
2023-02-19T09:05:54.151Z,19.53
2023-02-19T09:08:20.303Z,24.07
2023-02-19T09:10:57.166Z,21.90
2023-02-19T09:13:23.895Z,16.10
2023-02-19T09:15:50.073Z,18.53
2023-02-19T09:18:16.199Z,19.90
2023-02-19T09:20:42.490Z,25.40
2023-02-19T09:23:09.138Z,17.73
2023-02-19T09:25:35.334Z,23.03
2023-02-19T09:28:01.439Z,20.97
2023-02-19T09:30:28.384Z,19.77
2023-02-19T09:32:54.563Z,14.57
2023-02-19T09:35:20.921Z,15.93
2023-02-19T09:37:47.036Z,19.90
2023-02-19T09:40:13.318Z,21.00
2023-02-19T09:42:41.418Z,17.43
2023-02-19T09:45:10.159Z,19.17
2023-02-19T09:47:37.069Z,17.43
2023-02-19T09:50:06.990Z,24.80
2023-02-19T09:52:36.184Z,18.80
2023-02-19T09:55:04.861Z,18.63
2023-02-19T09:57:32.878Z,15.63
2023-02-19T10:00:04.676Z,15.93
2023-02-19T10:02:31.221Z,13.87
2023-02-19T10:04:58.537Z,18.07
2023-02-19T10:07:26.694Z,16.20
2023-02-19T10:09:55.425Z,9.97
2023-02-19T10:12:25.217Z,11.47
2023-02-19T10:14:52.774Z,17.37
2023-02-19T10:17:23.688Z,12.23
2023-02-19T10:19:49.895Z,16.93
2023-02-19T10:22:17.116Z,17.43
2023-02-19T10:24:44.171Z,14.40
2023-02-19T10:27:12.371Z,13.70
2023-02-19T10:29:38.508Z,12.30
2023-02-19T10:32:17.920Z,11.03
2023-02-19T10:34:44.167Z,12.80
2023-02-19T10:37:14.277Z,8.13
2023-02-19T10:39:43.244Z,10.67
2023-02-19T10:42:16.786Z,12.67
2023-02-19T10:44:44.817Z,8.57
2023-02-19T10:47:16.102Z,17.17
2023-02-19T10:49:43.353Z,11.20
2023-02-19T10:52:16.751Z,10.50
2023-02-19T10:54:44.701Z,13.33
2023-02-19T10:57:29.043Z,8.40
2023-02-19T10:59:57.335Z,9.07
2023-02-19T11:02:24.517Z,15.67
2023-02-19T11:05:04.310Z,10.83
2023-02-19T11:07:30.621Z,9.53
2023-02-19T11:09:58.198Z,10.90
2023-02-19T11:12:25.836Z,14.30
2023-02-19T11:14:51.990Z,14.03
2023-02-19T11:17:22.594Z,16.30
2023-02-19T11:19:51.735Z,9.07
2023-02-19T11:22:20.052Z,13.27
2023-02-19T11:24:48.569Z,9.87
2023-02-19T11:27:18.445Z,9.43
2023-02-19T11:29:44.553Z,12.30
2023-02-19T11:32:24.616Z,7.17
2023-02-19T11:34:51.042Z,8.07
2023-02-19T11:37:19.970Z,6.70
2023-02-19T11:39:47.608Z,3.80
2023-02-19T11:42:41.169Z,4.93
2023-02-19T11:45:18.768Z,4.17
2023-02-19T11:48:13.372Z,6.60
2023-02-19T11:50:48.306Z,6.40
2023-02-19T11:53:20.041Z,6.40
2023-02-19T11:55:53.996Z,7.97
2023-02-19T11:58:56.051Z,9.60
2023-02-19T12:01:26.545Z,11.13
2023-02-19T12:04:03.402Z,11.03
2023-02-19T12:06:33.549Z,9.70
2023-02-19T12:09:19.156Z,13.13
2023-02-19T12:11:54.757Z,18.50
2023-02-19T12:14:40.602Z,12.23
2023-02-19T12:17:14.346Z,11.17
2023-02-19T12:19:46.430Z,12.43
2023-02-19T12:22:27.669Z,15.07
2023-02-19T12:25:23.338Z,16.10
2023-02-19T12:27:59.325Z,16.93
2023-02-19T12:30:41.943Z,20.70
2023-02-19T12:33:30.025Z,13.27
2023-02-19T12:36:02.761Z,14.60
2023-02-19T12:38:32.718Z,13.73
2023-02-19T12:41:19.754Z,16.50
2023-02-19T12:43:51.613Z,11.57
2023-02-19T12:46:21.952Z,13.00
2023-02-19T12:48:52.585Z,14.57
2023-02-19T12:51:21.347Z,13.60
2023-02-19T12:53:50.688Z,13.83
2023-02-19T12:56:19.132Z,12.20
2023-02-19T12:58:48.433Z,18.00
2023-02-19T13:01:19.560Z,17.50
2023-02-19T13:03:48.614Z,15.87
2023-02-19T13:06:25.527Z,12.73
2023-02-19T13:09:06.001Z,15.83
2023-02-19T13:11:36.790Z,17.60
2023-02-19T13:14:05.910Z,12.50
2023-02-19T13:16:34.251Z,12.07
2023-02-19T13:19:02.029Z,18.33
2023-02-19T13:21:48.961Z,16.30
2023-02-19T13:24:19.958Z,13.37
2023-02-19T13:27:00.325Z,16.50
2023-02-19T13:29:46.149Z,13.30
2023-02-19T13:32:24.966Z,11.93
2023-02-19T13:35:07.073Z,19.20
2023-02-19T13:37:33.525Z,18.07
2023-02-19T13:40:03.053Z,15.63
2023-02-19T13:42:32.228Z,14.83
2023-02-19T13:44:58.886Z,13.83
2023-02-19T13:47:58.195Z,15.37
2023-02-19T13:50:26.209Z,16.60
2023-02-19T13:52:53.575Z,18.80
2023-02-19T13:55:51.169Z,14.93
2023-02-19T13:58:57.682Z,20.03
2023-02-19T14:02:16.859Z,16.37
2023-02-19T14:04:55.225Z,12.03
2023-02-19T14:07:34.342Z,20.70
2023-02-19T14:10:01.086Z,15.87
2023-02-19T14:12:32.162Z,20.33
2023-02-19T14:15:36.753Z,19.90
2023-02-19T14:18:42.782Z,19.77
2023-02-19T14:21:17.230Z,24.53
2023-02-19T14:23:44.639Z,11.67
2023-02-19T14:26:10.981Z,12.53
2023-02-19T14:28:41.168Z,8.13
2023-02-19T14:31:16.247Z,7.40
2023-02-19T14:33:46.435Z,10.00
2023-02-19T14:36:19.948Z,9.97
2023-02-19T14:38:49.346Z,8.90
2023-02-19T14:41:16.681Z,7.77
2023-02-19T14:43:44.139Z,8.07
2023-02-19T14:46:16.834Z,8.80
2023-02-19T14:48:45.226Z,8.20
2023-02-19T14:51:14.619Z,9.73
2023-02-19T14:53:43.949Z,10.47
2023-02-19T14:56:19.672Z,12.50
2023-02-19T14:58:45.905Z,12.77
2023-02-19T15:01:25.366Z,8.53
2023-02-19T15:03:54.088Z,8.47
2023-02-19T15:06:22.547Z,8.63
2023-02-19T15:08:51.299Z,8.70
2023-02-19T15:11:20.219Z,9.87
2023-02-19T15:13:49.127Z,6.47
2023-02-19T15:16:19.540Z,9.93
2023-02-19T15:18:46.267Z,8.77
2023-02-19T15:21:21.937Z,12.57
2023-02-19T15:23:48.112Z,8.17
2023-02-19T15:26:20.598Z,7.47
2023-02-19T15:28:46.738Z,6.13
2023-02-19T15:31:15.274Z,7.37
2023-02-19T15:33:49.885Z,9.20
2023-02-19T15:36:24.775Z,8.33
2023-02-19T15:38:56.080Z,8.83
2023-02-19T15:41:23.335Z,12.63
2023-02-19T15:43:53.328Z,13.73
2023-02-19T15:46:20.927Z,11.67
2023-02-19T15:48:50.409Z,11.30
2023-02-19T15:51:21.818Z,13.50
2023-02-19T15:53:52.558Z,21.80
2023-02-19T15:56:21.029Z,20.90
2023-02-19T15:58:50.887Z,13.37
2023-02-19T16:01:20.050Z,14.17
2023-02-19T16:03:47.181Z,14.43
2023-02-19T16:06:15.078Z,21.40
2023-02-19T16:08:42.976Z,16.87
2023-02-19T16:11:26.725Z,17.83
2023-02-19T16:14:16.666Z,19.20
2023-02-19T16:16:43.645Z,18.17
2023-02-19T16:19:09.826Z,16.00
2023-02-19T16:21:36.323Z,16.50
2023-02-19T16:24:06.435Z,15.40
2023-02-19T16:26:39.379Z,17.93
2023-02-19T16:29:17.555Z,18.37
2023-02-19T16:31:48.249Z,15.87
2023-02-19T16:34:23.770Z,17.23
2023-02-19T16:36:50.040Z,15.90
2023-02-19T16:39:22.193Z,15.57
2023-02-19T16:42:15.304Z,20.13
2023-02-19T16:44:42.318Z,10.47
2023-02-19T16:47:33.300Z,8.33
2023-02-19T16:50:02.199Z,10.60
2023-02-19T16:52:28.709Z,6.20
2023-02-19T16:54:55.468Z,4.40
2023-02-19T16:57:21.653Z,4.13
2023-02-19T16:59:47.807Z,3.63
2023-02-19T17:02:17.726Z,2.40
2023-02-19T17:04:43.988Z,3.23
2023-02-19T17:07:13.138Z,2.13
2023-02-19T17:09:39.313Z,1.67
2023-02-19T17:12:10.430Z,3.53
2023-02-19T17:14:36.531Z,3.43
2023-02-19T17:17:02.910Z,1.90
2023-02-19T17:19:29.028Z,2.10
2023-02-19T17:21:55.223Z,5.37
2023-02-19T17:24:21.327Z,1.40
2023-02-19T17:26:47.598Z,2.40
2023-02-19T17:29:15.803Z,6.43
2023-02-19T17:31:42.168Z,2.37
2023-02-19T17:34:08.375Z,1.90
2023-02-19T17:36:34.503Z,2.00
2023-02-19T17:39:02.227Z,1.50
2023-02-19T17:41:28.547Z,3.67
2023-02-19T17:43:55.319Z,2.10
2023-02-19T17:46:23.522Z,3.43
2023-02-19T17:48:49.775Z,4.20
2023-02-19T17:51:16.208Z,3.17
2023-02-19T17:53:42.729Z,2.80
2023-02-19T17:56:09.896Z,3.53
2023-02-19T17:58:36.014Z,5.47
2023-02-19T18:01:02.178Z,3.60
2023-02-19T18:03:29.219Z,3.60
2023-02-19T18:05:55.406Z,5.77
2023-02-19T18:08:21.609Z,6.07
2023-02-19T18:10:47.743Z,6.93
2023-02-19T18:13:13.977Z,4.83
2023-02-19T18:15:40.222Z,9.57
2023-02-19T18:18:07.113Z,4.17
2023-02-19T18:20:34.217Z,3.40
2023-02-19T18:23:00.388Z,3.77
2023-02-19T18:25:26.578Z,5.00
2023-02-19T18:27:52.772Z,2.70
2023-02-19T18:30:21.734Z,2.17
2023-02-19T18:32:48.489Z,2.03
2023-02-19T18:35:15.421Z,2.67
2023-02-19T18:37:42.234Z,2.57
2023-02-19T18:40:09.579Z,1.30
2023-02-19T18:42:35.875Z,2.30
2023-02-19T18:45:02.074Z,3.27
2023-02-19T18:47:28.298Z,2.43
2023-02-19T18:49:56.405Z,1.93
2023-02-19T18:52:24.412Z,1.70
2023-02-19T18:54:51.932Z,2.27
2023-02-19T18:57:19.102Z,1.60
2023-02-19T18:59:45.263Z,1.83
2023-02-19T19:02:13.046Z,5.70
2023-02-19T19:04:40.549Z,2.30
2023-02-19T19:07:07.805Z,6.43
2023-02-19T19:09:34.023Z,0.83
2023-02-19T19:12:00.829Z,2.20
2023-02-19T19:14:27.019Z,1.17
2023-02-19T19:16:53.290Z,1.20
2023-02-19T19:19:19.901Z,2.00
2023-02-19T19:21:51.936Z,1.97
2023-02-19T19:24:19.924Z,1.83
2023-02-19T19:26:46.314Z,2.57
2023-02-19T19:29:15.198Z,3.10
2023-02-19T19:31:42.301Z,2.43
2023-02-19T19:34:08.934Z,1.50
2023-02-19T19:36:35.087Z,1.50
2023-02-19T19:39:01.271Z,1.30
2023-02-19T19:41:27.402Z,4.20
2023-02-19T19:43:53.722Z,2.53
2023-02-19T19:46:20.575Z,3.30
2023-02-19T19:48:47.550Z,1.43
2023-02-19T19:51:14.377Z,1.27
2023-02-19T19:53:40.536Z,1.30
2023-02-19T19:56:07.331Z,1.87
2023-02-19T19:58:35.864Z,2.90
2023-02-19T20:01:02.343Z,1.20
2023-02-19T20:03:29.399Z,1.20
2023-02-19T20:05:55.518Z,1.67
2023-02-19T20:08:21.885Z,1.10
2023-02-19T20:10:48.119Z,1.87
2023-02-19T20:13:16.089Z,1.30
2023-02-19T20:15:42.333Z,1.53
2023-02-19T20:18:08.762Z,1.20
2023-02-19T20:20:35.537Z,1.20
2023-02-19T20:23:01.729Z,1.20
2023-02-19T20:25:28.033Z,1.20
2023-02-19T20:27:54.164Z,1.40
2023-02-19T20:30:22.242Z,1.93
2023-02-19T20:32:48.642Z,1.33
2023-02-19T20:35:15.303Z,1.27
2023-02-19T20:37:43.064Z,2.20
2023-02-19T20:40:10.880Z,1.67
2023-02-19T20:42:37.194Z,1.37
2023-02-19T20:45:03.675Z,1.07
2023-02-19T20:47:29.814Z,4.30
2023-02-19T20:49:55.997Z,3.20
2023-02-19T20:52:23.948Z,1.00
2023-02-19T20:54:54.650Z,1.07
2023-02-19T20:57:20.959Z,2.00
2023-02-19T20:59:47.195Z,1.70
2023-02-19T21:02:16.821Z,1.20
2023-02-19T21:04:43.148Z,1.20
2023-02-19T21:07:09.539Z,2.47
2023-02-19T21:09:35.746Z,1.33
2023-02-19T21:12:02.536Z,2.00
2023-02-19T21:14:28.701Z,1.10
2023-02-19T21:16:54.897Z,1.40
2023-02-19T21:19:21.349Z,1.13
2023-02-19T21:21:47.454Z,1.90
2023-02-19T21:24:16.250Z,2.93
2023-02-19T21:26:43.327Z,3.70
2023-02-19T21:29:14.520Z,2.60
2023-02-19T21:31:42.714Z,1.00
2023-02-19T21:34:10.959Z,1.60
2023-02-19T21:36:37.351Z,2.77
2023-02-19T21:39:04.429Z,1.70
2023-02-19T21:41:30.544Z,1.33
2023-02-19T21:43:57.091Z,5.20
2023-02-19T21:46:24.661Z,2.63
2023-02-19T21:48:52.212Z,4.17
2023-02-19T21:51:18.929Z,1.50
2023-02-19T21:53:46.049Z,1.80
2023-02-19T21:56:19.994Z,1.63
2023-02-19T21:58:46.097Z,5.67
2023-02-19T22:01:12.424Z,1.63
2023-02-19T22:03:39.261Z,3.67
2023-02-19T22:06:06.035Z,6.77
2023-02-19T22:08:32.185Z,1.90
2023-02-19T22:10:58.409Z,1.80
2023-02-19T22:13:24.519Z,1.60
2023-02-19T22:15:50.843Z,1.83
2023-02-19T22:18:16.980Z,2.43
2023-02-19T22:20:43.802Z,2.27
2023-02-19T22:23:09.968Z,3.73
2023-02-19T22:25:36.062Z,1.40
2023-02-19T22:28:03.451Z,1.47
2023-02-19T22:30:29.604Z,1.50
2023-02-19T22:32:55.879Z,2.57
2023-02-19T22:35:22.455Z,2.30
2023-02-19T22:37:49.279Z,2.77
2023-02-19T22:40:15.428Z,1.83
2023-02-19T22:42:41.520Z,3.43
2023-02-19T22:45:10.074Z,3.40
2023-02-19T22:47:36.244Z,1.70
2023-02-19T22:50:02.559Z,1.60
2023-02-19T22:52:28.720Z,2.23
2023-02-19T22:54:55.616Z,2.50
2023-02-19T22:57:21.895Z,2.73
2023-02-19T22:59:48.056Z,1.87
2023-02-19T23:02:14.164Z,3.97
2023-02-19T23:04:40.301Z,3.17
2023-02-19T23:07:06.630Z,2.03
2023-02-19T23:09:32.785Z,2.87
2023-02-19T23:12:04.107Z,4.07
2023-02-19T23:14:30.252Z,4.53
2023-02-19T23:16:56.559Z,3.63
2023-02-19T23:19:22.973Z,4.10
2023-02-19T23:21:49.563Z,5.13
2023-02-19T23:24:16.094Z,5.73
2023-02-19T23:26:42.927Z,7.40
2023-02-19T23:29:09.907Z,7.73
2023-02-19T23:31:36.083Z,7.37
2023-02-19T23:34:02.534Z,8.87
2023-02-19T23:36:30.146Z,8.50
2023-02-19T23:38:56.241Z,12.50
2023-02-19T23:41:22.541Z,7.23
2023-02-19T23:43:48.645Z,5.90
2023-02-19T23:46:16.986Z,5.57
2023-02-19T23:48:43.537Z,8.20
2023-02-19T23:51:09.743Z,9.67
2023-02-19T23:53:35.862Z,8.53
2023-02-19T23:56:02.038Z,8.53
2023-02-19T23:58:28.163Z,6.57
